Time;durP1;ratioP1;P1;durP2;ratioP2;P2;SDS_P1;SDS_P2;PMS_P1;PMS_P2;Temp;Humidity;BMP_temperature;BMP_pressure;BME280_temperature;BME280_humidity;BME280_pressure;Samples;Min_cycle;Max_cycle;Signal;HPM_P1;HPM_P2
2023/01/22 00:00:33;;;;;;;6.30;5.82;;;;;;;-0.16;100.00;100684.38;10506830;28;20045;-74
2023/01/22 00:05:35;;;;;;;8.25;7.40;;;;;;;-0.01;100.00;100682.13;10488138;28;20064;-74
2023/01/22 00:10:37;;;;;;;7.45;6.55;;;;;;;0.12;100.00;100684.13;10487166;28;20047;-75
2023/01/22 00:15:39;;;;;;;6.00;5.50;;;;;;;0.09;100.00;100683.19;10504979;28;20066;-75
2023/01/22 00:20:45;;;;;;;7.75;7.20;;;;;;;-0.12;100.00;100687.06;10486647;28;20060;-74
2023/01/22 00:25:47;;;;;;;7.23;6.63;;;;;;;-0.04;100.00;100684.66;10487922;28;20492;-74
2023/01/22 00:30:56;;;;;;;8.15;7.45;;;;;;;-0.09;100.00;100678.50;10505491;28;20124;-74
2023/01/22 00:36:24;;;;;;;7.22;6.63;;;;;;;-0.07;100.00;100684.59;10486558;28;20045;-75
2023/01/22 00:41:26;;;;;;;6.78;6.15;;;;;;;0.03;100.00;100683.06;10501578;28;20045;-74
2023/01/22 00:46:29;;;;;;;7.13;6.40;;;;;;;-0.13;100.00;100692.22;10486731;28;20065;-74
2023/01/22 00:51:32;;;;;;;8.20;7.50;;;;;;;-0.30;100.00;100691.84;10503738;28;20032;-74
2023/01/22 00:56:34;;;;;;;8.52;7.82;;;;;;;-0.35;100.00;100701.19;10504331;28;20045;-74
2023/01/22 01:01:37;;;;;;;14.65;8.35;;;;;;;-0.36;100.00;100709.75;10503791;28;20045;-74
2023/01/22 01:06:39;;;;;;;9.15;8.45;;;;;;;-0.31;100.00;100711.63;10485327;28;20056;-74
2023/01/22 01:11:41;;;;;;;9.05;8.25;;;;;;;-0.07;100.00;100713.88;10484623;28;20052;-74
2023/01/22 01:16:43;;;;;;;9.50;8.75;;;;;;;-0.07;100.00;100716.47;10484539;28;20493;-73
2023/01/22 01:21:45;;;;;;;8.80;8.10;;;;;;;-0.09;100.00;100710.41;10484203;28;20135;-73
2023/01/22 01:26:47;;;;;;;9.05;8.35;;;;;;;-0.13;100.00;100710.31;10484984;28;20037;-74
2023/01/22 01:31:52;;;;;;;8.88;8.27;;;;;;;-0.09;100.00;100712.09;10484819;28;20044;-73
2023/01/22 01:36:53;;;;;;;10.00;9.27;;;;;;;-0.14;100.00;100706.81;10502649;28;20071;-74
2023/01/22 01:41:56;;;;;;;9.27;8.48;;;;;;;-0.09;100.00;100707.81;10467244;28;20075;-74
2023/01/22 01:47:16;;;;;;;9.50;8.80;;;;;;;-0.08;100.00;100700.94;10467228;28;20421;-74
2023/01/22 01:52:18;;;;;;;9.93;9.02;;;;;;;-0.22;100.00;100697.16;10483106;28;20047;-74
2023/01/22 01:57:26;;;;;;;9.85;9.05;;;;;;;-0.24;100.00;100704.88;10500747;28;20486;-74
2023/01/22 02:02:30;;;;;;;10.10;9.23;;;;;;;-0.28;100.00;100706.50;10482844;28;20568;-74
2023/01/22 02:07:32;;;;;;;10.10;9.30;;;;;;;-0.26;100.00;100707.44;10482416;28;20056;-73
2023/01/22 02:12:33;;;;;;;10.25;9.48;;;;;;;-0.27;100.00;100710.88;10482603;28;20048;-74
2023/01/22 02:17:36;;;;;;;10.60;9.70;;;;;;;-0.23;100.00;100722.13;10482704;28;20045;-74
2023/01/22 02:22:39;;;;;;;9.90;9.15;;;;;;;-0.26;100.00;100727.25;10500749;28;20040;-74
2023/01/22 02:27:40;;;;;;;9.68;8.98;;;;;;;-0.23;100.00;100727.28;10482335;28;20047;-74
2023/01/22 02:32:42;;;;;;;10.07;9.27;;;;;;;-0.17;100.00;100735.19;10500460;28;20071;-74
2023/01/22 02:37:45;;;;;;;9.30;8.50;;;;;;;-0.16;100.00;100736.94;10482872;28;20089;-74
2023/01/22 02:42:46;;;;;;;9.70;8.90;;;;;;;-0.05;100.00;100732.84;10482508;28;20110;-73
2023/01/22 02:47:48;;;;;;;10.15;9.30;;;;;;;-0.10;100.00;100739.66;10482440;28;20131;-73
2023/01/22 02:52:50;;;;;;;9.00;8.30;;;;;;;0.01;100.00;100736.44;10482289;28;20072;-73
2023/01/22 02:57:52;;;;;;;10.00;9.15;;;;;;;-0.19;100.00;100734.28;10481728;28;20053;-74
2023/01/22 03:02:54;;;;;;;10.00;9.20;;;;;;;-0.10;100.00;100738.78;10480980;28;20063;-74
2023/01/22 03:07:56;;;;;;;8.85;8.15;;;;;;;-0.02;100.00;100738.09;10481678;28;20044;-72
2023/01/22 03:23:39;;;;;;;8.43;7.72;;;;;;;0.11;100.00;100746.13;10482375;28;20136;-72
2023/01/22 03:28:41;;;;;;;7.97;7.38;;;;;;;-0.03;100.00;100745.84;10500139;28;20122;-73
2023/01/22 03:33:43;;;;;;;8.43;7.78;;;;;;;-0.04;100.00;100747.56;10481643;28;20052;-74
2023/01/22 03:38:46;;;;;;;7.75;7.15;;;;;;;0.06;100.00;100761.56;10481135;28;20427;-74
2023/01/22 03:43:52;;;;;;;7.97;7.38;;;;;;;0.09;100.00;100756.47;10464876;28;20052;-73
2023/01/22 03:48:59;;;;;;;7.57;7.00;;;;;;;0.03;100.00;100750.25;10465357;28;20041;-73
2023/01/22 03:54:01;;;;;;;8.73;8.02;;;;;;;0.09;100.00;100768.47;10481214;28;20047;-73
2023/01/22 03:59:03;;;;;;;8.45;7.75;;;;;;;0.09;100.00;100766.81;10499789;28;20051;-73
2023/01/22 04:04:06;;;;;;;9.05;8.35;;;;;;;0.08;100.00;100762.44;10480721;28;20048;-72
2023/01/22 04:09:08;;;;;;;9.38;8.57;;;;;;;0.06;100.00;100765.84;10498584;28;20094;-73
2023/01/22 04:14:19;;;;;;;8.32;7.68;;;;;;;0.11;100.00;100775.44;10480737;28;20055;-73
2023/01/22 04:19:30;;;;;;;9.27;8.35;;;;;;;0.18;100.00;100786.81;10480897;28;20523;-73
2023/01/22 04:24:44;;;;;;;9.07;8.27;;;;;;;0.01;100.00;100785.56;10506222;28;20075;-73
2023/01/22 04:29:46;;;;;;;8.85;8.15;;;;;;;0.02;100.00;100789.88;10488379;28;20036;-72
2023/01/22 04:34:47;;;;;;;9.77;8.95;;;;;;;-0.09;100.00;100790.50;10486887;28;20135;-73
2023/01/22 04:39:55;;;;;;;10.88;10.07;;;;;;;0.00;100.00;100792.44;10487209;28;20040;-73
2023/01/22 04:44:56;;;;;;;9.50;8.82;;;;;;;0.04;100.00;100794.22;10466150;22;20127;-70
2023/01/22 04:49:58;;;;;;;11.35;10.45;;;;;;;-0.07;100.00;100785.38;10445205;28;20041;-70
2023/01/22 04:55:00;;;;;;;11.60;10.57;;;;;;;-0.15;100.00;100784.31;10462452;28;20494;-70
2023/01/22 05:00:13;;;;;;;12.68;11.68;;;;;;;-0.15;100.00;100798.09;10444785;28;20056;-70
2023/01/22 05:05:15;;;;;;;12.40;11.30;;;;;;;-0.07;100.00;100799.16;10444212;28;20048;-70
2023/01/22 05:10:18;;;;;;;11.30;10.32;;;;;;;0.03;100.00;100801.97;10445585;28;20486;-70
2023/01/22 05:15:20;;;;;;;12.40;11.48;;;;;;;-0.05;100.00;100801.78;10444133;28;20136;-70
2023/01/22 05:20:29;;;;;;;13.65;12.55;;;;;;;-0.10;100.00;100816.31;10444340;28;20132;-70
2023/01/22 05:25:32;;;;;;;12.90;11.70;;;;;;;-0.03;100.00;100811.31;10444119;28;20572;-70
2023/01/22 05:30:37;;;;;;;13.68;12.45;;;;;;;-0.07;100.00;100814.66;10442850;28;20069;-70
2023/01/22 05:35:59;;;;;;;15.18;13.77;;;;;;;-0.13;100.00;100813.66;10461080;28;20048;-70
2023/01/22 05:41:01;;;;;;;14.05;12.95;;;;;;;-0.14;100.00;100817.94;10443055;28;20391;-70
2023/01/22 05:46:07;;;;;;;15.75;14.32;;;;;;;-0.23;100.00;100820.28;10443184;28;20099;-70
2023/01/22 05:51:14;;;;;;;15.75;14.30;;;;;;;-0.22;100.00;100832.41;10461103;28;20049;-70
2023/01/22 05:56:17;;;;;;;16.85;15.25;;;;;;;-0.24;100.00;100828.88;10441927;28;20049;-71
2023/01/22 06:01:19;;;;;;;16.30;14.80;;;;;;;-0.19;100.00;100829.00;10425603;28;20041;-70
2023/01/22 06:06:24;;;;;;;16.40;14.80;;;;;;;-0.21;100.00;100828.09;10441662;28;20048;-71
2023/01/22 06:11:28;;;;;;;16.67;15.18;;;;;;;-0.19;100.00;100840.22;10425629;28;20049;-71
2023/01/22 06:16:32;;;;;;;19.50;16.05;;;;;;;-0.05;100.00;100850.88;10441684;28;20091;-70
2023/01/22 06:21:36;;;;;;;18.42;16.60;;;;;;;0.07;100.00;100851.19;10458788;28;20048;-70
2023/01/22 06:26:38;;;;;;;23.17;16.75;;;;;;;0.18;100.00;100851.44;10423609;28;20045;-70
2023/01/22 06:31:42;;;;;;;23.65;16.35;;;;;;;-0.01;100.00;100866.50;10423659;28;20437;-71
2023/01/22 06:36:49;;;;;;;19.30;17.40;;;;;;;0.03;100.00;100877.78;10442969;28;20479;-70
2023/01/22 06:41:52;;;;;;;19.25;17.25;;;;;;;0.14;100.00;100881.53;10440819;28;20136;-71
2023/01/22 06:46:54;;;;;;;19.25;16.52;;;;;;;0.06;100.00;100890.81;10441027;28;20048;-71
2023/01/22 06:52:00;;;;;;;17.13;15.43;;;;;;;-0.13;100.00;100886.91;10440758;28;20045;-71
2023/01/22 06:57:04;;;;;;;17.77;15.60;;;;;;;0.21;100.00;100903.22;10441190;28;20075;-70
2023/01/22 07:02:15;;;;;;;23.45;15.98;;;;;;;0.05;100.00;100898.53;10441782;28;20052;-70
2023/01/22 07:07:17;;;;;;;18.65;16.40;;;;;;;-0.09;100.00;100911.06;10458359;28;20041;-70
2023/01/22 07:12:19;;;;;;;23.58;17.38;;;;;;;-0.15;100.00;100911.81;10457878;28;20570;-70
2023/01/22 07:17:20;;;;;;;20.95;16.48;;;;;;;-0.12;100.00;100924.81;10458751;28;20457;-71
2023/01/22 07:22:22;;;;;;;22.65;18.05;;;;;;;0.08;100.00;100911.50;10458123;28;20044;-71
2023/01/22 07:27:24;;;;;;;21.77;17.63;;;;;;;-0.05;100.00;100929.28;10440306;28;20457;-71
2023/01/22 07:32:26;;;;;;;17.95;16.15;;;;;;;-0.04;100.00;100925.03;10457282;28;20116;-72
2023/01/22 07:37:27;;;;;;;21.48;15.90;;;;;;;0.12;100.00;100931.44;10458966;28;20072;-70
2023/01/22 07:42:29;;;;;;;15.98;14.45;;;;;;;0.17;100.00;100935.88;10458883;28;20075;-71
2023/01/22 07:47:31;;;;;;;17.60;14.93;;;;;;;0.21;100.00;100940.28;10458029;28;20491;-71
2023/01/22 07:52:32;;;;;;;31.00;23.08;;;;;;;0.27;100.00;100951.59;10457863;28;20041;-71
2023/01/22 07:57:34;;;;;;;17.02;15.52;;;;;;;0.31;100.00;100954.34;10461885;28;20096;-71
2023/01/22 08:02:37;;;;;;;20.08;18.23;;;;;;;0.12;100.00;100967.63;10466519;28;20041;-71
2023/01/22 08:07:38;;;;;;;13.98;12.57;;;;;;;0.27;100.00;100968.03;10466137;28;20447;-71
2023/01/22 08:12:42;;;;;;;18.95;14.20;;;;;;;0.28;100.00;100967.19;10463871;28;20049;-71
2023/01/22 08:17:51;;;;;;;16.70;15.18;;;;;;;0.19;100.00;100967.81;10462474;28;20120;-70
2023/01/22 08:22:58;;;;;;;19.63;17.57;;;;;;;0.00;100.00;100973.38;10466512;28;20041;-70
2023/01/22 08:28:04;;;;;;;14.23;12.80;;;;;;;0.31;100.00;100982.78;10463790;28;20087;-70
2023/01/22 08:33:06;;;;;;;13.97;12.73;;;;;;;0.34;100.00;100988.00;10463230;28;20091;-70
2023/01/22 08:38:07;;;;;;;15.10;12.65;;;;;;;0.19;100.00;100990.22;10446472;28;20103;-70
2023/01/22 08:43:09;;;;;;;14.05;12.85;;;;;;;0.29;100.00;101009.44;10463156;28;20080;-70
2023/01/22 08:48:11;;;;;;;26.90;17.38;;;;;;;0.46;100.00;101010.72;10458980;28;20468;-69
2023/01/22 08:53:12;;;;;;;15.93;14.15;;;;;;;0.30;100.00;101008.59;10458710;28;20044;-70
2023/01/22 08:58:14;;;;;;;13.60;12.40;;;;;;;0.49;100.00;101011.69;10440108;28;20127;-70
2023/01/22 09:03:16;;;;;;;13.88;12.68;;;;;;;0.47;100.00;101013.34;10444104;28;20068;-71
2023/01/22 09:08:18;;;;;;;14.85;13.52;;;;;;;0.66;100.00;101013.78;10444673;28;20067;-70
2023/01/22 09:13:20;;;;;;;15.77;14.48;;;;;;;0.51;100.00;101019.47;10461979;28;20402;-70
2023/01/22 09:18:21;;;;;;;16.45;14.95;;;;;;;0.57;100.00;101018.75;10461584;28;20049;-71
2023/01/22 09:23:23;;;;;;;17.88;16.17;;;;;;;0.57;100.00;101023.91;10462275;28;20048;-71
2023/01/22 09:28:25;;;;;;;17.65;16.00;;;;;;;0.59;100.00;101030.03;10461757;28;20076;-70
2023/01/22 09:33:27;;;;;;;17.38;15.63;;;;;;;0.71;100.00;101017.38;10461611;28;20045;-70
2023/01/22 09:38:28;;;;;;;18.85;16.85;;;;;;;0.67;100.00;101021.59;10460755;28;20490;-70
2023/01/22 09:43:34;;;;;;;19.67;17.48;;;;;;;0.58;100.00;101023.09;10459720;28;20042;-70
2023/01/22 09:48:43;;;;;;;20.38;18.52;;;;;;;0.59;100.00;101025.72;10460287;28;20059;-71
2023/01/22 09:53:54;;;;;;;22.45;19.25;;;;;;;0.66;100.00;101029.31;10460214;28;20088;-72
2023/01/22 09:58:57;;;;;;;22.48;18.38;;;;;;;0.57;100.00;101031.69;10442216;28;20049;-71
2023/01/22 10:04:06;;;;;;;23.38;19.23;;;;;;;0.68;100.00;101035.41;10418561;28;20041;-72
2023/01/22 10:09:19;;;;;;;21.95;18.80;;;;;;;0.65;100.00;101036.19;10417313;28;20069;-72
2023/01/22 10:14:25;;;;;;;23.50;19.55;;;;;;;0.82;100.00;101046.09;10421324;28;20041;-71
2023/01/22 10:19:33;;;;;;;21.40;18.17;;;;;;;0.71;100.00;101048.44;10457808;28;20051;-71
2023/01/22 10:24:35;;;;;;;22.67;20.55;;;;;;;0.68;100.00;101054.41;10459582;28;20045;-70
2023/01/22 10:29:38;;;;;;;27.10;21.05;;;;;;;0.64;100.00;101052.56;10459012;28;20063;-70
2023/01/22 10:34:39;;;;;;;24.88;21.23;;;;;;;0.72;100.00;101052.78;10459196;28;20045;-69
2023/01/22 10:39:43;;;;;;;30.10;23.85;;;;;;;0.69;100.00;101063.91;10439181;28;20036;-68
2023/01/22 10:44:46;;;;;;;24.00;21.55;;;;;;;0.61;100.00;101062.84;10443739;22;20179;-75
2023/01/22 10:50:00;;;;;;;35.78;24.75;;;;;;;0.58;100.00;101062.78;10400062;28;20048;-74
2023/01/22 10:55:06;;;;;;;26.10;23.33;;;;;;;0.66;100.00;101060.38;10416796;28;20055;-75
2023/01/22 11:00:17;;;;;;;30.83;24.55;;;;;;;0.74;100.00;101064.88;10408731;28;20042;-74
2023/01/22 11:05:20;;;;;;;29.08;25.35;;;;;;;0.83;100.00;101059.06;10400291;28;20045;-75
2023/01/22 11:10:27;;;;;;;32.75;25.42;;;;;;;0.93;100.00;101052.38;10416369;28;20041;-75
2023/01/22 11:15:46;;;;;;;30.83;25.03;;;;;;;0.71;100.00;101059.66;10396044;28;20132;-76
2023/01/22 11:20:55;;;;;;;34.58;25.42;;;;;;;0.77;100.00;101052.88;10374809;28;20041;-75
2023/01/22 11:26:15;;;;;;;26.08;23.33;;;;;;;0.68;100.00;101059.56;10375229;28;20053;-75
2023/01/22 11:31:17;;;;;;;25.55;23.05;;;;;;;0.75;100.00;101066.66;10379828;28;20466;-76
2023/01/22 11:36:23;;;;;;;24.38;21.85;;;;;;;0.84;100.00;101072.88;10424415;28;20063;-75
2023/01/22 11:41:49;;;;;;;25.70;23.20;;;;;;;0.77;100.00;101074.47;10423871;28;20041;-75
2023/01/22 11:47:14;;;;;;;24.42;21.92;;;;;;;0.88;100.00;101064.34;10405591;28;20044;-75
2023/01/22 11:52:26;;;;;;;24.88;21.85;;;;;;;0.81;100.00;101067.66;10423679;28;20033;-74
2023/01/22 11:57:37;;;;;;;26.05;23.42;;;;;;;0.74;100.00;101062.31;10405603;28;20045;-75
2023/01/22 12:02:57;;;;;;;22.75;20.55;;;;;;;0.78;100.00;101046.84;10416639;28;20041;-74
2023/01/22 12:08:04;;;;;;;22.40;20.23;;;;;;;0.84;100.00;101044.41;10398854;28;20042;-75
2023/01/22 12:13:35;;;;;;;23.73;21.63;;;;;;;0.75;100.00;101045.06;10410188;28;20367;-74
2023/01/22 12:19:20;;;;;;;25.17;22.25;;;;;;;0.63;100.00;101039.59;10381631;28;20507;-73
2023/01/22 12:24:22;;;;;;;24.45;22.40;;;;;;;0.82;100.00;101057.31;10370724;28;20054;-73
2023/01/22 12:29:33;;;;;;;24.70;22.25;;;;;;;0.70;100.00;101050.13;10379507;28;20064;-74
2023/01/22 12:34:48;;;;;;;19.55;17.75;;;;;;;0.73;100.00;101052.78;10380874;28;20101;-74
2023/01/22 12:40:18;;;;;;;22.65;20.63;;;;;;;0.77;100.00;101058.94;10380737;28;20038;-74
2023/01/22 12:45:33;;;;;;;22.10;20.10;;;;;;;0.69;100.00;101056.16;10364212;28;20145;-73
2023/01/22 12:50:36;;;;;;;23.98;21.55;;;;;;;0.83;100.00;101051.31;10380927;28;20506;-72
2023/01/22 12:55:40;;;;;;;28.20;23.75;;;;;;;0.63;100.00;101056.00;10379391;28;20046;-72
2023/01/22 13:00:44;;;;;;;29.43;24.53;;;;;;;0.63;100.00;101061.19;10378905;28;20046;-72
2023/01/22 13:05:46;;;;;;;29.08;25.83;;;;;;;0.67;100.00;101056.97;10380762;28;20288;-72
2023/01/22 13:10:57;;;;;;;27.55;23.52;;;;;;;0.49;100.00;101053.06;10380895;28;20108;-74
2023/01/22 13:16:19;;;;;;;25.88;23.17;;;;;;;0.54;100.00;101065.25;10379757;28;20086;-73
2023/01/22 13:21:32;;;;;;;25.60;23.35;;;;;;;0.70;100.00;101080.31;10380713;28;20097;-73
2023/01/22 13:26:36;;;;;;;29.85;26.58;;;;;;;0.64;100.00;101077.56;10379498;28;20048;-73
2023/01/22 13:31:38;;;;;;;26.88;24.23;;;;;;;0.53;100.00;101074.69;10379597;28;20042;-72
2023/01/22 13:36:45;;;;;;;26.45;23.40;;;;;;;0.58;100.00;101080.03;10377855;28;20048;-73
2023/01/22 13:41:50;;;;;;;25.27;22.70;;;;;;;0.49;100.00;101080.66;10377965;28;20049;-74
2023/01/22 13:46:52;;;;;;;28.33;24.23;;;;;;;0.47;100.00;101084.91;10377831;28;20419;-73
2023/01/22 13:51:59;;;;;;;28.20;24.27;;;;;;;0.47;100.00;101084.91;10377473;28;20042;-73
2023/01/22 13:57:01;;;;;;;36.60;25.80;;;;;;;0.52;100.00;101096.25;10376278;28;20447;-72
2023/01/22 14:02:18;;;;;;;26.95;23.55;;;;;;;0.47;100.00;101090.94;10377359;28;20503;-74
2023/01/22 14:07:35;;;;;;;26.63;21.98;;;;;;;0.24;100.00;101095.50;10378109;28;20046;-73
2023/01/22 14:12:37;;;;;;;28.70;22.73;;;;;;;0.39;100.00;101107.09;10377221;28;20393;-72
2023/01/22 14:17:39;;;;;;;23.00;20.98;;;;;;;0.42;100.00;101107.19;10375579;28;20048;-74
2023/01/22 14:22:40;;;;;;;24.58;22.20;;;;;;;0.44;100.00;101106.41;10377810;28;20038;-73
2023/01/22 14:27:45;;;;;;;23.30;21.13;;;;;;;0.40;100.00;101096.81;10375201;28;20045;-73
2023/01/22 14:32:47;;;;;;;24.95;22.25;;;;;;;0.47;100.00;101096.13;10375584;28;20034;-74
2023/01/22 14:37:51;;;;;;;25.27;22.33;;;;;;;0.47;100.00;101095.25;10376674;28;20056;-73
2023/01/22 14:42:52;;;;;;;23.88;21.65;;;;;;;0.29;100.00;101097.34;10375965;28;20050;-73
2023/01/22 14:47:54;;;;;;;24.30;21.60;;;;;;;0.40;100.00;101090.75;10376477;28;20095;-73
2023/01/22 14:52:56;;;;;;;23.58;21.27;;;;;;;0.34;100.00;101099.22;10376533;28;20120;-73
2023/01/22 14:57:58;;;;;;;24.73;22.17;;;;;;;0.35;100.00;101107.84;10375970;28;20041;-73
2023/01/22 15:03:00;;;;;;;29.33;21.88;;;;;;;0.06;100.00;101105.34;10375192;28;20213;-74
2023/01/22 15:08:02;;;;;;;22.85;20.42;;;;;;;0.28;100.00;101104.25;10374818;28;20046;-72
2023/01/22 15:13:04;;;;;;;23.45;21.00;;;;;;;0.18;100.00;101107.41;10372974;28;20049;-73
2023/01/22 15:18:06;;;;;;;25.27;21.20;;;;;;;0.12;100.00;101113.28;10374449;28;20115;-73
2023/01/22 15:23:07;;;;;;;23.70;20.83;;;;;;;0.33;100.00;101118.16;10372645;28;20038;-73
2023/01/22 15:28:09;;;;;;;23.30;20.25;;;;;;;0.33;100.00;101114.72;10373601;28;20100;-73
2023/01/22 15:33:11;;;;;;;22.70;18.33;;;;;;;0.18;100.00;101112.59;10372799;28;20464;-72
2023/01/22 15:38:12;;;;;;;19.92;17.90;;;;;;;0.22;100.00;101124.75;10373744;28;20057;-74
2023/01/22 15:43:14;;;;;;;18.50;16.90;;;;;;;0.15;100.00;101113.38;10372322;28;20130;-73
2023/01/22 15:48:16;;;;;;;17.27;15.77;;;;;;;0.12;100.00;101109.81;10374146;28;20074;-73
2023/01/22 15:53:18;;;;;;;18.13;16.60;;;;;;;0.04;100.00;101122.53;10374260;28;20038;-73
2023/01/22 15:58:21;;;;;;;18.30;16.55;;;;;;;0.06;100.00;101135.50;10372502;28;20050;-73
2023/01/22 16:03:22;;;;;;;19.00;17.10;;;;;;;0.12;100.00;101139.13;10373678;28;20034;-73
2023/01/22 16:08:24;;;;;;;18.30;16.60;;;;;;;0.21;100.00;101151.44;10373889;28;20073;-72
2023/01/22 16:13:26;;;;;;;18.33;16.77;;;;;;;0.28;100.00;101161.13;10373237;28;20049;-73
2023/01/22 16:18:30;;;;;;;17.35;15.85;;;;;;;0.30;100.00;101154.28;10377346;28;20102;-72
2023/01/22 16:23:33;;;;;;;17.95;16.30;;;;;;;0.35;100.00;101168.22;10381254;28;20049;-73
2023/01/22 16:28:36;;;;;;;18.58;15.40;;;;;;;0.35;100.00;101175.09;10381127;28;20042;-73
2023/01/22 16:33:41;;;;;;;17.08;15.48;;;;;;;0.30;100.00;101171.50;10381107;28;20040;-73
2023/01/22 16:38:43;;;;;;;16.00;14.63;;;;;;;0.23;100.00;101165.31;10380608;28;20060;-73
2023/01/22 16:44:04;;;;;;;15.35;13.93;;;;;;;0.26;100.00;101173.13;10380803;28;20518;-73
2023/01/22 16:49:33;;;;;;;16.48;15.18;;;;;;;0.23;100.00;101179.09;10381182;28;20038;-72
2023/01/22 16:54:36;;;;;;;16.70;15.02;;;;;;;0.42;100.00;101183.06;10378397;28;20054;-72
2023/01/22 16:59:39;;;;;;;16.77;15.07;;;;;;;0.35;100.00;101181.13;10381231;28;20050;-72
2023/01/22 17:04:41;;;;;;;15.07;13.68;;;;;;;0.41;100.00;101178.75;10381272;28;20050;-72
2023/01/22 17:09:43;;;;;;;15.70;14.40;;;;;;;0.40;100.00;101187.34;10381119;28;20046;-73
2023/01/22 17:14:45;;;;;;;15.60;14.10;;;;;;;0.39;100.00;101188.16;10381339;28;20399;-73
2023/01/22 17:19:47;;;;;;;16.42;14.90;;;;;;;0.35;100.00;101193.19;10378648;28;20176;-73
2023/01/22 17:24:49;;;;;;;17.13;15.48;;;;;;;0.48;100.00;101196.16;10378590;28;20049;-73
2023/01/22 17:29:50;;;;;;;16.00;14.40;;;;;;;0.35;100.00;101204.41;10378725;28;20100;-73
2023/01/22 17:34:52;;;;;;;15.43;13.93;;;;;;;0.29;100.00;101196.50;10379404;28;20454;-73
2023/01/22 17:39:54;;;;;;;16.13;14.73;;;;;;;0.37;100.00;101205.34;10380347;28;20060;-73
2023/01/22 17:44:56;;;;;;;17.48;15.93;;;;;;;0.36;100.00;101219.13;10379436;28;20053;-73
2023/01/22 17:49:57;;;;;;;16.58;15.18;;;;;;;0.46;100.00;101233.19;10379215;28;20081;-73
2023/01/22 17:54:59;;;;;;;17.10;15.50;;;;;;;0.32;100.00;101227.63;10377427;28;20468;-73
2023/01/22 18:00:02;;;;;;;17.08;14.38;;;;;;;0.45;100.00;101234.03;10380144;28;20052;-74
2023/01/22 18:05:08;;;;;;;16.85;15.23;;;;;;;0.47;100.00;101243.56;10385320;28;20105;-73
2023/01/22 18:10:12;;;;;;;18.27;16.35;;;;;;;0.35;100.00;101239.75;10397247;28;20068;-73
2023/01/22 18:15:14;;;;;;;18.02;16.33;;;;;;;0.37;100.00;101244.16;10399626;28;20045;-74
2023/01/22 18:20:15;;;;;;;17.40;15.95;;;;;;;0.35;100.00;101242.34;10400718;28;20064;-73
2023/01/22 18:25:17;;;;;;;18.38;16.65;;;;;;;0.48;100.00;101253.09;10398789;28;20415;-74
2023/01/22 18:30:19;;;;;;;18.10;16.30;;;;;;;0.42;100.00;101254.63;10419075;28;20046;-74
2023/01/22 18:35:21;;;;;;;18.38;16.77;;;;;;;0.33;100.00;101264.72;10418310;28;20069;-74
2023/01/22 18:40:23;;;;;;;18.30;16.60;;;;;;;0.47;100.00;101266.84;10419289;28;20088;-73
2023/01/22 18:45:25;;;;;;;20.08;18.25;;;;;;;0.24;100.00;101273.94;10401516;28;20045;-73
2023/01/22 18:50:27;;;;;;;20.05;18.17;;;;;;;0.24;100.00;101273.94;10418732;28;20056;-74
2023/01/22 18:55:30;;;;;;;21.48;19.25;;;;;;;0.16;100.00;101287.47;10402361;28;20399;-73
2023/01/22 19:00:32;;;;;;;19.67;17.88;;;;;;;0.12;100.00;101283.91;10419010;28;20041;-74
2023/01/22 19:05:37;;;;;;;24.33;20.50;;;;;;;0.10;100.00;101292.47;10418444;28;20058;-73
2023/01/22 19:10:39;;;;;;;21.67;19.38;;;;;;;0.04;100.00;101293.13;10418373;28;20507;-74
2023/01/22 19:15:41;;;;;;;22.75;19.65;;;;;;;-0.03;100.00;101292.09;10402086;28;20502;-73
2023/01/22 19:20:43;;;;;;;25.48;20.15;;;;;;;-0.10;100.00;101289.25;10403859;28;20097;-73
2023/01/22 19:25:46;;;;;;;22.85;20.30;;;;;;;-0.18;100.00;101301.91;10385872;28;20049;-73
2023/01/22 19:30:48;;;;;;;29.02;22.27;;;;;;;-0.22;100.00;101307.84;10418066;28;20048;-74
2023/01/22 19:35:50;;;;;;;23.60;21.17;;;;;;;-0.23;100.00;101307.78;10379935;28;20451;-74
2023/01/22 19:40:52;;;;;;;22.95;19.60;;;;;;;-0.23;100.00;101320.69;10359787;28;20412;-74
2023/01/22 19:45:54;;;;;;;25.15;22.38;;;;;;;-0.25;100.00;101320.66;10358918;28;20042;-73
2023/01/22 19:51:01;;;;;;;27.75;23.52;;;;;;;-0.10;100.00;101322.84;10381238;28;20565;-74
2023/01/22 19:56:04;;;;;;;45.80;26.88;;;;;;;-0.17;100.00;101323.50;10425799;28;20045;-73
2023/01/22 20:01:08;;;;;;;29.02;21.75;;;;;;;-0.21;100.00;101334.56;10408709;28;20069;-74
2023/01/22 20:06:12;;;;;;;31.13;22.42;;;;;;;-0.25;100.00;101333.56;10426076;28;20049;-73
2023/01/22 20:11:14;;;;;;;28.75;21.33;;;;;;;-0.09;100.00;101335.84;10409781;28;20041;-72
2023/01/22 20:16:22;;;;;;;23.38;20.85;;;;;;;-0.22;100.00;101344.03;10426844;28;20409;-74
2023/01/22 20:21:26;;;;;;;29.30;21.85;;;;;;;-0.25;100.00;101338.75;10409536;28;20498;-73
2023/01/22 20:26:28;;;;;;;27.20;21.00;;;;;;;-0.24;100.00;101340.50;10408931;28;20084;-73
2023/01/22 20:31:30;;;;;;;24.17;20.05;;;;;;;-0.22;100.00;101343.13;10384920;28;20471;-74
2023/01/22 20:36:32;;;;;;;21.77;19.65;;;;;;;-0.17;100.00;101344.19;10365374;28;20083;-74
2023/01/22 20:41:34;;;;;;;19.50;17.63;;;;;;;-0.09;100.00;101346.19;10365113;28;20045;-74
2023/01/22 20:46:39;;;;;;;22.55;18.50;;;;;;;-0.15;100.00;101351.13;10425560;28;20072;-74
2023/01/22 20:51:41;;;;;;;18.73;16.98;;;;;;;-0.18;100.00;101360.47;10406752;28;20041;-73
2023/01/22 20:56:45;;;;;;;17.85;16.20;;;;;;;-0.08;100.00;101362.56;10406326;28;20561;-72
2023/01/22 21:01:47;;;;;;;24.88;17.45;;;;;;;-0.12;100.00;101371.91;10407946;28;20092;-74
2023/01/22 21:06:49;;;;;;;18.23;16.63;;;;;;;-0.03;100.00;101376.50;10405518;28;20061;-72
2023/01/22 21:11:51;;;;;;;20.30;18.27;;;;;;;-0.14;100.00;101375.25;10424216;28;20033;-74
2023/01/22 21:16:52;;;;;;;20.70;18.48;;;;;;;-0.18;100.00;101376.00;10390335;28;20053;-73
2023/01/22 21:21:56;;;;;;;18.85;16.90;;;;;;;-0.15;100.00;101389.91;10405467;28;20037;-75
2023/01/22 21:26:57;;;;;;;20.25;18.45;;;;;;;-0.21;100.00;101387.13;10389644;28;20053;-74
2023/01/22 21:31:59;;;;;;;18.60;16.80;;;;;;;-0.06;100.00;101395.38;10422310;28;20076;-74
2023/01/22 21:37:04;;;;;;;21.58;18.95;;;;;;;-0.14;100.00;101399.41;10404889;28;20151;-74
2023/01/22 21:47:29;;;;;;;18.88;17.20;;;;;;;-0.10;100.00;101416.78;10421632;28;20522;-73
2023/01/22 21:52:30;;;;;;;18.55;16.75;;;;;;;-0.07;100.00;101416.88;10422324;28;20133;-73
2023/01/22 21:57:32;;;;;;;19.55;17.25;;;;;;;0.08;100.00;101423.38;10421515;28;20090;-74
2023/01/22 22:02:34;;;;;;;19.35;17.58;;;;;;;-0.05;100.00;101424.69;10419619;28;20037;-73
2023/01/22 22:07:36;;;;;;;19.65;17.80;;;;;;;0.04;100.00;101426.69;10419939;28;20053;-73
2023/01/22 22:12:38;;;;;;;19.45;17.58;;;;;;;0.11;100.00;101426.94;10420137;28;20042;-74
2023/01/22 22:17:40;;;;;;;18.70;17.10;;;;;;;0.23;100.00;101435.13;10419143;28;20065;-74
2023/01/22 22:22:42;;;;;;;16.55;15.25;;;;;;;0.18;100.00;101440.97;10419323;28;20041;-73
2023/01/22 22:27:43;;;;;;;17.98;16.42;;;;;;;0.29;100.00;101443.91;10401283;28;20053;-74
2023/01/22 22:32:45;;;;;;;19.50;17.65;;;;;;;0.16;100.00;101447.78;10420817;28;20045;-74
2023/01/22 22:37:47;;;;;;;18.13;16.38;;;;;;;0.32;100.00;101450.06;10419432;28;20526;-74
2023/01/22 22:42:49;;;;;;;17.27;15.63;;;;;;;0.23;100.00;101453.22;10419544;28;20128;-72
2023/01/22 22:47:50;;;;;;;19.05;17.02;;;;;;;0.18;100.00;101459.94;10418840;28;20041;-72
2023/01/22 22:52:52;;;;;;;18.73;17.05;;;;;;;0.24;100.00;101460.16;10418427;28;20041;-71
2023/01/22 22:57:54;;;;;;;17.98;16.38;;;;;;;0.18;100.00;101461.66;10418812;28;20045;-72
2023/01/22 23:02:56;;;;;;;19.30;17.50;;;;;;;0.23;100.00;101465.28;10417649;28;20056;-73